createdAt,value
2019-01-10T00:02:00.264Z,92.17
2019-01-10T00:04:04.657Z,91.98
2019-01-10T00:06:09.626Z,91.91
2019-01-10T00:08:10.620Z,92.17
2019-01-10T00:10:14.191Z,92.66
2019-01-10T00:12:15.019Z,91.86
2019-01-10T00:14:15.777Z,91.85
2019-01-10T00:16:17.860Z,91.38
2019-01-10T00:18:32.616Z,91.24
2019-01-10T00:20:34.743Z,91.69
2019-01-10T00:22:45.653Z,92.00
2019-01-10T00:24:46.579Z,92.68
2019-01-10T00:26:49.473Z,92.43
2019-01-10T00:28:50.533Z,92.58
2019-01-10T00:30:54.785Z,92.95
2019-01-10T00:32:57.918Z,93.63
2019-01-10T00:35:03.903Z,93.40
2019-01-10T00:37:05.126Z,93.26
2019-01-10T00:39:05.989Z,92.74
2019-01-10T00:41:06.812Z,92.56
2019-01-10T00:43:07.684Z,92.53
2019-01-10T00:45:10.963Z,92.60
2019-01-10T00:47:11.776Z,92.75
2019-01-10T00:49:13.053Z,92.31
2019-01-10T00:51:13.886Z,92.79
2019-01-10T00:53:37.574Z,92.21
2019-01-10T00:55:17.659Z,92.25
2019-01-10T00:57:18.997Z,92.40
2019-01-10T00:59:20.334Z,92.32
2019-01-10T01:01:24.212Z,92.11
2019-01-10T01:03:32.524Z,92.85
2019-01-10T01:05:47.028Z,92.73
2019-01-10T01:08:06.521Z,92.83
2019-01-10T01:10:15.413Z,92.74
2019-01-10T01:12:16.727Z,93.27
2019-01-10T01:14:23.538Z,93.29
2019-01-10T01:16:36.753Z,93.65
2019-01-10T01:19:00.626Z,93.67
2019-01-10T01:21:08.987Z,93.29
2019-01-10T01:23:17.892Z,93.31
2019-01-10T01:25:31.807Z,93.74
2019-01-10T01:27:32.661Z,93.18
2019-01-10T01:29:38.655Z,92.45
2019-01-10T01:31:39.404Z,92.60
2019-01-10T01:33:40.532Z,93.08
2019-01-10T01:35:41.551Z,93.35
2019-01-10T01:37:43.486Z,93.12
2019-01-10T01:39:45.415Z,93.27
2019-01-10T01:41:46.151Z,93.17
2019-01-10T01:43:47.386Z,93.21
2019-01-10T01:45:56.847Z,93.96
2019-01-10T01:47:57.803Z,93.63
2019-01-10T01:50:00.232Z,93.60
2019-01-10T01:52:20.877Z,93.52
2019-01-10T01:54:29.739Z,93.36
2019-01-10T01:56:30.605Z,93.75
2019-01-10T01:58:32.962Z,94.20
2019-01-10T02:00:34.511Z,94.36
2019-01-10T02:02:35.885Z,94.66
2019-01-10T02:04:36.591Z,94.63
2019-01-10T02:06:37.324Z,95.11
2019-01-10T02:08:39.404Z,95.08
2019-01-10T02:10:40.543Z,94.97
2019-01-10T02:12:41.836Z,94.87
2019-01-10T02:14:47.953Z,94.49
2019-01-10T02:16:49.103Z,94.04
2019-01-10T02:18:51.887Z,93.93
2019-01-10T02:20:54.714Z,93.69
2019-01-10T02:22:55.482Z,93.32
2019-01-10T02:24:59.519Z,94.13
2019-01-10T02:27:00.355Z,93.71
2019-01-10T02:29:01.418Z,93.28
2019-01-10T02:31:02.392Z,92.74
2019-01-10T02:33:03.263Z,92.95
2019-01-10T02:35:05.630Z,93.46
2019-01-10T02:37:08.599Z,93.54
2019-01-10T02:39:09.883Z,93.09
2019-01-10T02:41:11.772Z,93.42
2019-01-10T02:43:12.625Z,92.68
2019-01-10T02:45:15.270Z,93.57
2019-01-10T02:47:16.121Z,93.17
2019-01-10T02:49:17.051Z,92.91
2019-01-10T02:51:18.098Z,93.22
2019-01-10T02:53:19.209Z,93.26
2019-01-10T02:55:19.966Z,93.55
2019-01-10T02:57:21.296Z,93.49
2019-01-10T02:59:22.624Z,93.12
2019-01-10T03:03:34.818Z,93.67
2019-01-10T03:03:49.294Z,93.16
2019-01-10T03:05:35.630Z,93.47
2019-01-10T03:08:01.046Z,93.35
2019-01-10T03:09:41.166Z,93.92
2019-01-10T03:11:42.140Z,94.21
2019-01-10T03:13:43.152Z,94.21
2019-01-10T03:15:43.959Z,94.87
2019-01-10T03:17:45.063Z,95.01
2019-01-10T03:19:46.022Z,95.48
2019-01-10T03:21:48.364Z,95.59
2019-01-10T03:23:50.106Z,96.05
2019-01-10T03:25:52.744Z,95.88
2019-01-10T03:27:53.488Z,95.76
2019-01-10T03:29:54.221Z,96.15
2019-01-10T03:32:00.774Z,95.96
2019-01-10T03:34:03.113Z,95.93
2019-01-10T03:36:04.200Z,96.34
2019-01-10T03:38:05.260Z,96.11
2019-01-10T03:40:11.976Z,96.23
2019-01-10T03:42:13.724Z,96.37
2019-01-10T03:44:14.793Z,96.10
2019-01-10T03:46:15.632Z,95.92
2019-01-10T03:48:16.696Z,95.53
2019-01-10T03:50:17.687Z,96.17
2019-01-10T03:52:18.715Z,95.50
2019-01-10T03:54:20.890Z,95.44
2019-01-10T03:56:22.138Z,95.84
2019-01-10T03:58:30.474Z,95.54
2019-01-10T04:00:37.703Z,95.52
2019-01-10T04:02:44.372Z,95.04
2019-01-10T04:04:45.237Z,95.80
2019-01-10T04:06:47.136Z,96.14
2019-01-10T04:08:47.920Z,96.08
2019-01-10T04:10:48.814Z,96.16
2019-01-10T04:12:49.706Z,95.64
2019-01-10T04:14:50.370Z,95.39
2019-01-10T04:16:53.340Z,95.12
2019-01-10T04:18:54.051Z,94.82
2019-01-10T04:20:54.829Z,95.65
2019-01-10T04:22:55.949Z,95.32
2019-01-10T04:24:56.701Z,94.42
2019-01-10T04:26:57.518Z,94.51
2019-01-10T04:28:58.246Z,94.51
2019-01-10T04:30:59.027Z,95.10
2019-01-10T04:32:59.800Z,95.39
2019-01-10T04:35:00.524Z,96.42
2019-01-10T04:37:01.225Z,96.70
2019-01-10T04:39:05.142Z,96.17
2019-01-10T04:41:05.909Z,95.86
2019-01-10T04:43:06.694Z,95.62
2019-01-10T04:45:07.715Z,95.01
2019-01-10T04:47:08.770Z,94.48
2019-01-10T04:49:09.523Z,95.07
2019-01-10T04:51:10.523Z,94.39
2019-01-10T04:53:11.251Z,94.55
2019-01-10T04:55:12.215Z,94.03
2019-01-10T04:57:14.172Z,94.80
2019-01-10T04:59:15.223Z,94.02
2019-01-10T05:01:15.968Z,94.86
2019-01-10T05:03:17.883Z,95.09
2019-01-10T05:05:19.948Z,94.49
2019-01-10T05:07:20.743Z,94.30
2019-01-10T05:09:21.944Z,94.88
2019-01-10T05:11:22.992Z,96.00
2019-01-10T05:13:23.793Z,95.69
2019-01-10T05:15:24.537Z,96.30
2019-01-10T05:17:25.834Z,96.67
2019-01-10T05:19:26.903Z,97.01
2019-01-10T05:21:29.241Z,97.58
2019-01-10T05:23:29.934Z,97.13
2019-01-10T05:25:30.965Z,97.04
2019-01-10T05:27:31.672Z,97.18
2019-01-10T05:29:34.675Z,97.73
2019-01-10T05:31:35.369Z,97.39
2019-01-10T05:33:36.105Z,96.68
2019-01-10T05:35:37.109Z,96.20
2019-01-10T05:37:43.878Z,95.85
2019-01-10T05:39:47.557Z,95.26
2019-01-10T05:41:47.975Z,95.55
2019-01-10T05:43:48.816Z,95.90
2019-01-10T05:45:49.521Z,96.21
2019-01-10T05:47:50.340Z,97.09
2019-01-10T05:49:50.924Z,97.63
2019-01-10T05:51:52.621Z,98.29
2019-01-10T05:53:53.664Z,99.15
2019-01-10T05:55:55.627Z,99.43
2019-01-10T05:57:56.248Z,99.89
2019-01-10T05:59:57.300Z,100.00
2019-01-10T06:01:58.017Z,100.00
2019-01-10T06:03:59.787Z,100.00
2019-01-10T06:06:00.711Z,100.00
2019-01-10T06:08:01.807Z,100.00
2019-01-10T06:10:13.747Z,100.00
2019-01-10T06:12:25.411Z,100.00
2019-01-10T06:14:18.033Z,99.73
2019-01-10T06:16:18.970Z,99.56
2019-01-10T06:18:20.792Z,98.64
2019-01-10T06:20:24.483Z,99.25
2019-01-10T06:22:27.417Z,99.86
2019-01-10T06:24:29.835Z,99.60
2019-01-10T06:26:30.705Z,99.45
2019-01-10T06:28:31.856Z,99.55
2019-01-10T06:30:32.934Z,99.87
2019-01-10T06:32:34.006Z,99.38
2019-01-10T06:34:35.804Z,99.33
2019-01-10T06:36:38.029Z,99.58
2019-01-10T06:38:40.367Z,99.37
2019-01-10T06:40:42.342Z,99.23
2019-01-10T06:42:43.175Z,99.08
2019-01-10T06:44:44.724Z,99.22
2019-01-10T06:46:45.869Z,99.15
2019-01-10T06:48:46.639Z,98.83
2019-01-10T06:50:47.582Z,98.50
2019-01-10T06:52:48.476Z,98.18
2019-01-10T06:54:56.565Z,98.19
2019-01-10T06:56:54.223Z,98.34
2019-01-10T06:58:57.203Z,98.34
2019-01-10T07:00:58.522Z,98.42
2019-01-10T07:02:59.314Z,98.19
2019-01-10T07:05:00.286Z,98.30
2019-01-10T07:07:02.314Z,98.46
2019-01-10T07:09:06.269Z,99.03
2019-01-10T07:11:07.116Z,99.66
2019-01-10T07:13:09.107Z,100.00
2019-01-10T07:15:10.948Z,100.00
2019-01-10T07:17:11.860Z,100.00
2019-01-10T07:19:12.537Z,98.83
2019-01-10T07:21:13.465Z,99.65
2019-01-10T07:23:15.401Z,99.93
2019-01-10T07:25:18.606Z,100.00
2019-01-10T07:27:21.631Z,100.00
2019-01-10T07:29:25.890Z,100.00
2019-01-10T07:31:26.703Z,100.00
2019-01-10T07:33:27.667Z,100.00
2019-01-10T07:35:28.670Z,100.00
2019-01-10T07:37:29.840Z,100.00
2019-01-10T07:39:34.331Z,100.00
2019-01-10T07:41:38.947Z,100.00
2019-01-10T07:43:39.715Z,100.00
2019-01-10T07:45:40.424Z,100.00
2019-01-10T07:47:41.370Z,100.00
2019-01-10T07:49:42.212Z,100.00
2019-01-10T07:51:42.914Z,100.00
2019-01-10T07:53:43.733Z,100.00
2019-01-10T07:55:45.418Z,100.00
2019-01-10T07:57:46.131Z,100.00
2019-01-10T07:59:46.973Z,99.80
2019-01-10T08:01:47.657Z,99.92
2019-01-10T08:03:48.361Z,99.47
2019-01-10T08:05:49.308Z,99.29
2019-01-10T08:07:50.155Z,99.17
2019-01-10T08:09:51.067Z,98.51
2019-01-10T08:12:00.129Z,98.55
2019-01-10T08:13:56.138Z,98.75
2019-01-10T08:15:57.155Z,98.94
2019-01-10T08:18:06.271Z,98.81
2019-01-10T08:20:09.556Z,99.52
2019-01-10T08:22:10.591Z,99.54
2019-01-10T08:24:12.591Z,99.99
2019-01-10T08:26:15.567Z,99.34
2019-01-10T08:28:16.135Z,99.22
2019-01-10T08:30:19.232Z,99.61
2019-01-10T08:32:21.121Z,99.27
2019-01-10T08:34:22.012Z,99.30
2019-01-10T08:36:32.121Z,98.89
2019-01-10T08:38:25.579Z,98.72
2019-01-10T08:40:26.653Z,98.95
2019-01-10T08:42:27.513Z,98.67
2019-01-10T08:44:28.205Z,98.50
2019-01-10T08:46:30.990Z,98.18
2019-01-10T08:48:32.631Z,98.98
2019-01-10T08:50:33.555Z,98.90
2019-01-10T08:52:34.713Z,98.80
2019-01-10T08:54:35.543Z,98.80
2019-01-10T08:56:36.440Z,98.89
2019-01-10T08:58:37.309Z,98.70
2019-01-10T09:00:38.251Z,98.79
2019-01-10T09:02:40.716Z,98.35
2019-01-10T09:04:41.548Z,98.35
2019-01-10T09:06:42.274Z,98.94
2019-01-10T09:08:43.248Z,99.00
2019-01-10T09:10:43.977Z,99.46
2019-01-10T09:12:45.745Z,99.60
2019-01-10T09:14:46.571Z,99.45
2019-01-10T09:16:47.286Z,99.52
2019-01-10T09:18:48.079Z,99.30
2019-01-10T09:21:03.982Z,98.95
2019-01-10T09:23:01.265Z,99.08
2019-01-10T09:25:04.548Z,99.49
2019-01-10T09:27:06.220Z,99.04
2019-01-10T09:29:06.837Z,99.35
2019-01-10T09:31:07.643Z,99.51
2019-01-10T09:33:12.312Z,99.17
2019-01-10T09:35:12.973Z,98.81
2019-01-10T09:37:13.615Z,98.82
2019-01-10T09:39:20.608Z,98.91
2019-01-10T09:41:21.348Z,99.03
2019-01-10T09:43:29.335Z,98.67
2019-01-10T09:45:30.048Z,98.55
2019-01-10T09:47:41.000Z,98.34
2019-01-10T09:49:33.299Z,98.19
2019-01-10T09:51:33.972Z,97.91
2019-01-10T09:53:34.655Z,98.46
2019-01-10T09:55:35.382Z,98.42
2019-01-10T09:57:36.171Z,98.64
2019-01-10T09:59:36.930Z,97.91
2019-01-10T10:01:37.599Z,97.28
2019-01-10T10:03:38.369Z,97.43
2019-01-10T10:05:39.043Z,97.78
2019-01-10T10:07:40.036Z,97.98
2019-01-10T10:09:40.686Z,97.90
2019-01-10T10:11:41.322Z,98.05
2019-01-10T10:13:41.984Z,97.82
2019-01-10T10:15:42.703Z,98.33
2019-01-10T10:17:43.426Z,98.64
2019-01-10T10:19:44.221Z,98.74
2019-01-10T10:21:45.278Z,98.02
2019-01-10T10:23:47.007Z,96.74
2019-01-10T10:25:48.652Z,96.28
2019-01-10T10:27:55.159Z,96.55
2019-01-10T10:29:56.876Z,95.70
2019-01-10T10:31:57.531Z,97.45
2019-01-10T10:33:58.290Z,97.25
2019-01-10T10:36:02.664Z,97.11
2019-01-10T10:38:04.670Z,95.99
2019-01-10T10:40:16.180Z,95.49
2019-01-10T10:42:17.117Z,95.30
2019-01-10T10:44:19.088Z,94.51
2019-01-10T10:46:25.782Z,94.87
2019-01-10T10:48:26.417Z,93.99
2019-01-10T10:50:27.590Z,92.89
2019-01-10T10:55:13.319Z,88.92
2019-01-10T10:57:14.057Z,87.86
2019-01-10T10:59:17.785Z,87.39
2019-01-10T11:01:19.745Z,87.13
2019-01-10T11:03:20.729Z,87.12
2019-01-10T11:05:21.462Z,87.36
2019-01-10T11:07:24.137Z,87.26
2019-01-10T11:09:30.556Z,86.85
2019-01-10T11:11:31.201Z,87.43
2019-01-10T11:13:31.934Z,86.97
2019-01-10T11:15:32.655Z,86.46
2019-01-10T11:17:33.381Z,86.35
2019-01-10T11:19:34.150Z,86.61
2019-01-10T11:21:34.890Z,86.93
2019-01-10T11:23:36.628Z,86.88
2019-01-10T11:25:38.401Z,87.32
2019-01-10T11:27:39.210Z,86.86
2019-01-10T11:29:39.983Z,86.85
2019-01-10T11:31:43.831Z,86.23
2019-01-10T11:33:54.690Z,85.81
2019-01-10T11:35:55.575Z,84.88
2019-01-10T11:37:57.432Z,84.41
2019-01-10T11:39:58.271Z,83.62
2019-01-10T11:42:00.057Z,83.65
2019-01-10T11:44:01.786Z,84.53
2019-01-10T11:46:04.783Z,84.59
2019-01-10T11:48:08.498Z,84.13
2019-01-10T11:50:15.364Z,84.10
2019-01-10T11:52:16.120Z,83.91
2019-01-10T11:54:17.022Z,83.75
2019-01-10T11:56:17.829Z,83.98
2019-01-10T11:58:19.739Z,83.79
2019-01-10T12:00:23.414Z,84.03
2019-01-10T12:02:25.243Z,84.51
2019-01-10T12:04:26.110Z,84.63
2019-01-10T12:06:26.764Z,84.81
2019-01-10T12:08:27.874Z,85.27
2019-01-10T12:10:29.072Z,85.50
2019-01-10T12:12:29.752Z,85.33
2019-01-10T12:14:32.157Z,85.57
2019-01-10T12:16:32.984Z,86.06
2019-01-10T12:18:33.932Z,84.88
2019-01-10T12:20:40.490Z,84.87
2019-01-10T12:22:41.411Z,85.11
2019-01-10T12:24:42.431Z,85.35
2019-01-10T12:26:43.572Z,85.62
2019-01-10T12:28:46.656Z,85.66
2019-01-10T12:30:47.798Z,85.82
2019-01-10T12:32:48.720Z,85.67
2019-01-10T12:34:49.764Z,86.15
2019-01-10T12:37:00.341Z,84.84
2019-01-10T12:38:55.229Z,83.59
2019-01-10T12:40:56.008Z,83.54
2019-01-10T12:42:56.748Z,83.49
2019-01-10T12:44:57.490Z,83.59
2019-01-10T12:46:58.190Z,83.50
2019-01-10T12:48:59.157Z,83.44
2019-01-10T12:50:59.874Z,84.52
2019-01-10T12:53:00.502Z,84.09
2019-01-10T12:55:01.483Z,83.84
2019-01-10T12:57:02.426Z,84.23
2019-01-10T12:59:03.165Z,83.13
2019-01-10T13:01:06.400Z,82.51
2019-01-10T13:03:07.500Z,81.37
2019-01-10T13:05:08.468Z,80.15
2019-01-10T13:07:09.530Z,80.16
2019-01-10T13:09:10.665Z,80.07
2019-01-10T13:11:11.557Z,80.55
2019-01-10T13:13:13.467Z,79.72
2019-01-10T13:15:20.149Z,81.36
2019-01-10T13:17:21.147Z,81.79
2019-01-10T13:19:22.116Z,81.61
2019-01-10T13:21:22.759Z,79.75
2019-01-10T13:23:24.487Z,80.29
2019-01-10T13:25:25.515Z,81.35
2019-01-10T13:27:26.466Z,82.45
2019-01-10T13:29:27.397Z,82.33
2019-01-10T13:31:28.329Z,82.84
2019-01-10T13:33:29.027Z,83.03
2019-01-10T13:35:29.756Z,82.50
2019-01-10T13:37:30.500Z,82.80
2019-01-10T13:39:31.250Z,83.01
2019-01-10T13:41:31.933Z,83.54
2019-01-10T13:43:32.690Z,82.87
2019-01-10T13:45:33.596Z,82.35
2019-01-10T13:47:34.317Z,81.71
2019-01-10T13:49:35.061Z,81.63
2019-01-10T13:51:35.842Z,82.13
2019-01-10T13:53:36.460Z,82.35
2019-01-10T13:55:37.127Z,82.05
2019-01-10T13:57:37.819Z,82.38
2019-01-10T13:59:38.502Z,81.55
2019-01-10T14:01:39.167Z,82.05
2019-01-10T14:03:39.973Z,81.80
2019-01-10T14:05:40.896Z,82.01
2019-01-10T14:07:41.789Z,81.53
2019-01-10T14:09:44.698Z,81.65
2019-01-10T14:11:46.484Z,82.41
2019-01-10T14:13:57.792Z,83.15
2019-01-10T14:15:51.487Z,81.61
2019-01-10T14:17:58.390Z,82.99
2019-01-10T14:19:59.361Z,81.51
2019-01-10T14:22:00.340Z,81.76
2019-01-10T14:24:01.502Z,82.08
2019-01-10T14:26:02.723Z,82.05
2019-01-10T14:28:05.741Z,81.70
2019-01-10T14:30:21.251Z,81.88
2019-01-10T14:32:28.589Z,81.88
2019-01-10T14:34:30.681Z,81.82
2019-01-10T14:36:33.110Z,82.30
2019-01-10T14:38:41.218Z,83.46
2019-01-10T14:40:42.177Z,83.95
2019-01-10T14:42:44.878Z,82.41
2019-01-10T14:44:45.906Z,82.62
2019-01-10T14:46:47.028Z,82.48
2019-01-10T14:48:47.846Z,82.86
2019-01-10T14:50:51.189Z,82.78
2019-01-10T14:52:51.768Z,82.73
2019-01-10T14:54:52.964Z,81.34
2019-01-10T14:56:57.915Z,81.44
2019-01-10T14:58:56.535Z,82.00
2019-01-10T15:00:57.476Z,82.17
2019-01-10T15:02:58.183Z,82.24
2019-01-10T15:04:59.220Z,83.04
2019-01-10T15:07:00.111Z,84.33
2019-01-10T15:09:00.831Z,83.31
2019-01-10T15:11:01.811Z,83.00
2019-01-10T15:13:02.942Z,82.76
2019-01-10T15:15:10.127Z,82.91
2019-01-10T15:17:13.892Z,82.17
2019-01-10T15:19:14.119Z,82.57
2019-01-10T15:21:16.536Z,82.61
2019-01-10T15:23:17.388Z,82.55
2019-01-10T15:25:18.187Z,83.62
2019-01-10T15:27:19.022Z,83.34
2019-01-10T15:29:20.268Z,82.84
2019-01-10T15:31:21.484Z,82.58
2019-01-10T15:33:26.372Z,83.46
2019-01-10T15:35:27.258Z,83.93
2019-01-10T15:37:28.349Z,83.66
2019-01-10T15:39:29.103Z,84.30
2019-01-10T15:41:32.582Z,84.45
2019-01-10T15:43:33.535Z,84.84
2019-01-10T15:45:34.376Z,85.14
2019-01-10T15:47:36.289Z,85.14
2019-01-10T15:49:37.122Z,85.29
2019-01-10T15:51:44.802Z,85.28
2019-01-10T15:53:45.696Z,85.80
2019-01-10T15:55:46.326Z,85.74
2019-01-10T15:57:47.064Z,86.01
2019-01-10T15:59:48.834Z,85.33
2019-01-10T16:01:49.529Z,85.67
2019-01-10T16:03:50.350Z,85.49
2019-01-10T16:05:51.198Z,85.66
2019-01-10T16:07:51.878Z,85.61
2019-01-10T16:09:52.566Z,85.66
2019-01-10T16:11:53.360Z,86.16
2019-01-10T16:13:54.070Z,86.73
2019-01-10T16:15:55.761Z,87.12
2019-01-10T16:17:58.698Z,86.65
2019-01-10T16:20:00.442Z,86.51
2019-01-10T16:22:01.344Z,88.92
2019-01-10T16:24:02.432Z,88.23
2019-01-10T16:26:03.153Z,88.41
2019-01-10T16:28:04.143Z,90.09
2019-01-10T16:30:14.344Z,90.94
2019-01-10T16:32:15.101Z,89.69
2019-01-10T16:34:15.956Z,89.17
2019-01-10T16:36:16.797Z,88.93
2019-01-10T16:38:17.805Z,89.24
2019-01-10T16:40:20.439Z,87.93
2019-01-10T16:42:21.165Z,87.17
2019-01-10T16:44:22.032Z,88.50
2019-01-10T16:46:22.863Z,89.38
2019-01-10T16:48:24.104Z,92.51
2019-01-10T16:50:25.049Z,93.78
2019-01-10T16:52:25.927Z,93.45
2019-01-10T16:54:26.737Z,93.88
2019-01-10T16:56:30.959Z,94.02
2019-01-10T16:58:31.737Z,93.95
2019-01-10T17:00:40.537Z,94.08
2019-01-10T17:02:42.817Z,94.40
2019-01-10T17:04:43.879Z,95.25
2019-01-10T17:06:44.870Z,93.72
2019-01-10T17:08:45.656Z,94.06
2019-01-10T17:10:46.726Z,93.83
2019-01-10T17:12:47.439Z,93.39
2019-01-10T17:14:48.802Z,93.12
2019-01-10T17:16:50.273Z,92.58
2019-01-10T17:18:51.739Z,93.06
2019-01-10T17:20:52.412Z,93.71
2019-01-10T17:22:53.170Z,93.79
2019-01-10T17:24:54.283Z,95.02
2019-01-10T17:26:56.202Z,93.17
2019-01-10T17:28:57.223Z,93.50
2019-01-10T17:30:58.095Z,94.69
2019-01-10T17:32:58.805Z,95.29
2019-01-10T17:35:02.506Z,94.82
2019-01-10T17:37:03.395Z,94.08
2019-01-10T17:39:06.357Z,95.58
2019-01-10T17:41:07.067Z,95.79
2019-01-10T17:43:10.109Z,95.46
2019-01-10T17:45:15.126Z,95.91
2019-01-10T17:47:15.938Z,95.97
2019-01-10T17:49:16.711Z,95.61
2019-01-10T17:51:17.402Z,96.14
2019-01-10T17:53:18.188Z,95.66
2019-01-10T17:55:18.886Z,93.57
2019-01-10T17:57:19.583Z,93.53
2019-01-10T17:59:20.314Z,95.23
2019-01-10T18:01:21.139Z,96.33
2019-01-10T18:03:22.014Z,95.83
2019-01-10T18:05:22.746Z,96.72
2019-01-10T18:07:23.527Z,97.75
2019-01-10T18:09:24.569Z,95.29
2019-01-10T18:11:25.544Z,96.34
2019-01-10T18:13:26.285Z,95.46
2019-01-10T18:15:27.224Z,97.21
2019-01-10T18:17:28.238Z,97.95
2019-01-10T18:19:29.925Z,98.25
2019-01-10T18:21:30.697Z,97.57
2019-01-10T18:23:32.438Z,97.23
2019-01-10T18:25:33.208Z,96.89
2019-01-10T18:27:37.339Z,96.53
2019-01-10T18:29:39.281Z,97.09
2019-01-10T18:31:47.628Z,97.92
2019-01-10T18:36:27.152Z,97.79
2019-01-10T18:38:28.154Z,99.41
2019-01-10T18:40:46.855Z,99.10
2019-01-10T18:42:47.875Z,99.00
2019-01-10T18:45:17.419Z,98.68
2019-01-10T18:47:41.669Z,98.67
2019-01-10T18:52:47.657Z,98.36
2019-01-10T18:55:17.436Z,98.57
2019-01-10T18:56:33.038Z,98.65
2019-01-10T18:58:33.948Z,98.05
2019-01-10T19:00:34.611Z,97.88
2019-01-10T19:02:35.586Z,97.65
2019-01-10T19:04:36.690Z,97.71
2019-01-10T19:06:37.368Z,97.92
2019-01-10T19:08:38.185Z,98.20
2019-01-10T19:10:39.821Z,98.33
2019-01-10T19:12:40.573Z,98.31
2019-01-10T19:14:41.244Z,97.82
2019-01-10T19:16:42.299Z,97.20
2019-01-10T19:18:43.084Z,98.42
2019-01-10T19:20:43.763Z,97.49
2019-01-10T19:22:44.493Z,97.23
2019-01-10T19:24:45.245Z,96.48
2019-01-10T19:26:47.137Z,96.84
2019-01-10T19:28:47.840Z,96.19
2019-01-10T19:30:48.523Z,96.61
2019-01-10T19:32:49.509Z,97.50
2019-01-10T19:34:50.267Z,97.82
2019-01-10T19:36:50.878Z,96.47
2019-01-10T19:38:51.809Z,98.36
2019-01-10T19:40:52.561Z,98.62
2019-01-10T19:42:53.492Z,98.82
2019-01-10T19:44:54.198Z,97.29
2019-01-10T19:46:54.980Z,97.33
2019-01-10T19:49:05.150Z,98.88
2019-01-10T19:51:05.788Z,99.22
2019-01-10T19:53:15.779Z,97.46
2019-01-10T19:55:17.997Z,97.35
2019-01-10T19:57:18.864Z,97.17
2019-01-10T19:59:19.660Z,97.96
2019-01-10T20:01:20.414Z,95.76
2019-01-10T20:03:21.205Z,94.32
2019-01-10T20:05:22.166Z,96.67
2019-01-10T20:07:24.084Z,96.97
2019-01-10T20:09:29.976Z,95.42
2019-01-10T20:11:27.708Z,96.56
2019-01-10T20:13:29.370Z,97.43
2019-01-10T20:15:30.052Z,97.61
2019-01-10T20:17:30.794Z,97.37
2019-01-10T20:19:31.514Z,95.77
2019-01-10T20:21:32.435Z,94.87
2019-01-10T20:23:38.183Z,96.86
2019-01-10T20:25:39.470Z,97.67
2019-01-10T20:27:40.156Z,98.70
2019-01-10T20:29:42.091Z,98.91
2019-01-10T20:31:42.990Z,99.01
2019-01-10T20:33:43.701Z,98.78
2019-01-10T20:35:44.745Z,98.71
2019-01-10T20:37:45.482Z,98.76
2019-01-10T20:39:46.450Z,98.69
2019-01-10T20:41:47.425Z,98.62
2019-01-10T20:43:48.295Z,99.04
2019-01-10T20:45:49.277Z,100.00
2019-01-10T20:47:49.975Z,99.13
2019-01-10T20:49:50.805Z,99.23
2019-01-10T20:51:51.504Z,97.81
2019-01-10T20:53:52.494Z,98.10
2019-01-10T20:55:53.499Z,97.18
2019-01-10T20:57:54.169Z,97.42
2019-01-10T20:59:54.958Z,97.88
2019-01-10T21:01:56.028Z,98.61
2019-01-10T21:03:56.729Z,97.33
2019-01-10T21:05:57.743Z,97.75
2019-01-10T21:07:58.501Z,97.51
2019-01-10T21:09:59.637Z,96.98
2019-01-10T21:12:00.664Z,96.83
2019-01-10T21:14:01.422Z,97.73
2019-01-10T21:16:02.278Z,97.87
2019-01-10T21:18:03.278Z,99.11
2019-01-10T21:20:07.293Z,98.80
2019-01-10T21:22:08.045Z,97.95
2019-01-10T21:24:08.765Z,98.28
2019-01-10T21:26:10.721Z,97.79
2019-01-10T21:28:17.323Z,96.86
2019-01-10T21:30:21.533Z,97.37
2019-01-10T21:32:22.182Z,98.44
2019-01-10T21:34:22.934Z,98.20
2019-01-10T21:36:26.841Z,99.44
2019-01-10T21:38:27.802Z,100.00
2019-01-10T21:40:30.772Z,99.45
2019-01-10T21:42:35.793Z,98.54
2019-01-10T21:44:34.499Z,98.13
2019-01-10T21:46:35.579Z,96.39
2019-01-10T21:48:36.981Z,96.98
2019-01-10T21:50:37.652Z,98.38
2019-01-10T21:52:38.689Z,100.00
2019-01-10T21:54:45.503Z,100.00
2019-01-10T21:56:46.262Z,100.00
2019-01-10T21:58:47.152Z,100.00
2019-01-10T22:00:47.934Z,100.00
2019-01-10T22:02:48.945Z,100.00
2019-01-10T22:04:52.153Z,100.00
2019-01-10T22:06:53.312Z,100.00
2019-01-10T22:08:54.365Z,100.00
2019-01-10T22:10:55.707Z,100.00
2019-01-10T22:12:57.907Z,100.00
2019-01-10T22:14:58.761Z,100.00
2019-01-10T22:16:59.918Z,100.00
2019-01-10T22:19:01.438Z,100.00
2019-01-10T22:21:03.193Z,100.00
2019-01-10T22:23:03.893Z,100.00
2019-01-10T22:25:05.659Z,100.00
2019-01-10T22:27:07.322Z,100.00
2019-01-10T22:29:08.059Z,100.00
2019-01-10T22:31:09.032Z,100.00
2019-01-10T22:33:10.203Z,100.00
2019-01-10T22:35:14.054Z,100.00
2019-01-10T22:37:16.370Z,100.00
2019-01-10T22:39:17.690Z,100.00
2019-01-10T22:41:18.941Z,100.00
2019-01-10T22:43:19.965Z,100.00
2019-01-10T22:45:21.108Z,100.00
2019-01-10T22:47:21.818Z,100.00
2019-01-10T22:49:24.027Z,100.00
2019-01-10T22:51:25.219Z,100.00
2019-01-10T22:53:26.357Z,100.00
2019-01-10T22:55:28.039Z,100.00
2019-01-10T22:57:29.129Z,100.00
2019-01-10T22:59:30.459Z,100.00
2019-01-10T23:01:34.262Z,100.00
2019-01-10T23:03:36.899Z,100.00
2019-01-10T23:05:42.515Z,100.00
2019-01-10T23:07:43.700Z,100.00
2019-01-10T23:09:45.179Z,100.00
2019-01-10T23:11:46.160Z,100.00
2019-01-10T23:13:55.224Z,100.00
2019-01-10T23:15:56.674Z,100.00
2019-01-10T23:17:58.998Z,100.00
2019-01-10T23:20:00.272Z,100.00
2019-01-10T23:22:10.031Z,100.00
2019-01-10T23:24:11.575Z,100.00
2019-01-10T23:26:12.874Z,100.00
2019-01-10T23:28:14.229Z,100.00
2019-01-10T23:30:15.518Z,100.00
2019-01-10T23:32:16.773Z,100.00
2019-01-10T23:34:18.134Z,100.00
2019-01-10T23:36:18.927Z,100.00
2019-01-10T23:38:20.836Z,100.00
2019-01-10T23:40:21.845Z,100.00
2019-01-10T23:42:22.884Z,100.00
2019-01-10T23:44:23.920Z,100.00
2019-01-10T23:46:24.957Z,100.00
2019-01-10T23:48:25.922Z,100.00
2019-01-10T23:50:27.999Z,100.00
2019-01-10T23:52:29.658Z,100.00
2019-01-10T23:54:31.786Z,100.00
2019-01-10T23:56:35.010Z,100.00
2019-01-10T23:58:35.998Z,100.00
